createdAt,value
2023-02-16T00:00:26.612Z,50.908165
2023-02-16T00:01:26.608Z,50.908119
2023-02-16T00:02:26.663Z,50.908134
2023-02-16T00:03:26.623Z,50.908131
2023-02-16T00:04:26.585Z,50.908161
2023-02-16T00:05:26.572Z,50.908123
2023-02-16T00:06:26.567Z,50.908134
2023-02-16T00:07:26.583Z,50.908119
2023-02-16T00:08:26.564Z,50.908104
2023-02-16T00:09:26.540Z,50.908127
2023-02-16T00:10:26.539Z,50.908157
2023-02-16T00:11:26.531Z,50.908100
2023-02-16T00:12:26.549Z,50.908161
2023-02-16T00:13:26.516Z,50.908134
2023-02-16T00:14:26.510Z,50.908127
2023-02-16T00:15:26.504Z,50.908138
2023-02-16T00:16:26.501Z,50.908157
2023-02-16T00:17:26.509Z,50.908138
2023-02-16T00:18:26.482Z,50.908085
2023-02-16T00:19:26.473Z,50.908142
2023-02-16T00:20:26.464Z,50.908134
2023-02-16T00:21:26.457Z,50.908123
2023-02-16T00:22:26.474Z,50.908138
2023-02-16T00:23:26.442Z,50.908112
2023-02-16T00:24:26.434Z,50.908119
2023-02-16T00:25:26.433Z,50.908127
2023-02-16T00:26:26.403Z,50.908123
2023-02-16T00:27:27.435Z,50.908066
2023-02-16T00:28:26.401Z,50.908146
2023-02-16T00:29:26.396Z,50.908142
2023-02-16T00:30:26.442Z,50.908169
2023-02-16T00:31:26.477Z,50.908085
2023-02-16T00:32:26.544Z,50.908073
2023-02-16T00:33:26.388Z,50.908081
2023-02-16T00:34:26.378Z,50.908077
2023-02-16T00:35:26.358Z,50.908154
2023-02-16T00:36:26.350Z,50.908115
2023-02-16T00:37:26.372Z,50.908108
2023-02-16T00:38:26.339Z,50.908138
2023-02-16T00:39:26.329Z,50.908161
2023-02-16T00:40:26.322Z,50.908138
2023-02-16T00:41:26.325Z,50.908180
2023-02-16T00:42:26.329Z,50.908138
2023-02-16T00:43:26.319Z,50.908134
2023-02-16T00:44:26.299Z,50.908115
2023-02-16T00:45:26.305Z,50.908119
2023-02-16T00:46:26.351Z,50.908146
2023-02-16T00:47:26.297Z,50.908119
2023-02-16T00:48:26.267Z,50.908085
2023-02-16T00:49:26.262Z,50.908134
2023-02-16T00:50:26.259Z,50.908165
2023-02-16T00:51:26.808Z,50.908134
2023-02-16T00:52:27.265Z,50.908142
2023-02-16T00:53:27.053Z,50.908142
2023-02-16T00:54:26.232Z,50.908161
2023-02-16T00:55:26.218Z,50.908169
2023-02-16T00:56:26.212Z,50.908157
2023-02-16T00:57:26.242Z,50.908138
2023-02-16T00:58:26.196Z,50.908081
2023-02-16T00:59:26.182Z,50.908096
2023-02-16T01:00:26.177Z,50.908096
2023-02-16T01:01:26.187Z,50.908138
2023-02-16T01:02:26.194Z,50.908119
2023-02-16T01:03:26.154Z,50.908115
2023-02-16T01:04:26.207Z,50.908115
2023-02-16T01:05:26.148Z,50.908123
2023-02-16T01:06:26.136Z,50.908108
2023-02-16T01:07:26.126Z,50.908157
2023-02-16T01:08:26.146Z,50.908176
2023-02-16T01:09:26.115Z,50.908142
2023-02-16T01:10:26.104Z,50.908154
2023-02-16T01:11:26.102Z,50.908169
2023-02-16T01:12:26.090Z,50.908169
2023-02-16T01:13:26.102Z,50.908165
2023-02-16T01:14:26.077Z,50.908161
2023-02-16T01:15:26.066Z,50.908157
2023-02-16T01:16:26.072Z,50.908184
2023-02-16T01:17:26.051Z,50.908154
2023-02-16T01:18:26.067Z,50.908142
2023-02-16T01:19:26.037Z,50.908180
2023-02-16T01:20:26.027Z,50.908138
2023-02-16T01:21:26.018Z,50.908180
2023-02-16T01:22:26.012Z,50.908176
2023-02-16T01:23:26.031Z,50.908184
2023-02-16T01:24:25.996Z,50.908157
2023-02-16T01:25:26.000Z,50.908173
2023-02-16T01:26:25.994Z,50.908192
2023-02-16T01:27:25.977Z,50.908150
2023-02-16T01:28:25.996Z,50.908169
2023-02-16T01:29:25.965Z,50.908154
2023-02-16T01:30:26.020Z,50.908115
2023-02-16T01:31:26.068Z,50.908215
2023-02-16T01:32:25.979Z,50.908142
2023-02-16T01:33:25.968Z,50.908161
2023-02-16T01:34:25.932Z,50.908184
2023-02-16T01:35:25.915Z,50.908188
2023-02-16T01:36:25.909Z,50.908199
2023-02-16T01:37:25.911Z,50.908192
2023-02-16T01:38:25.933Z,50.908211
2023-02-16T01:39:25.895Z,50.908199
2023-02-16T01:40:26.885Z,50.908203
2023-02-16T01:41:25.882Z,50.908192
2023-02-16T01:42:25.875Z,50.908184
2023-02-16T01:43:25.891Z,50.908176
2023-02-16T01:44:25.850Z,50.908154
2023-02-16T01:45:25.848Z,50.908184
2023-02-16T01:46:25.859Z,50.908176
2023-02-16T01:47:25.837Z,50.908180
2023-02-16T01:48:25.873Z,50.908134
2023-02-16T01:49:25.817Z,50.908203
2023-02-16T01:50:25.813Z,50.908127
2023-02-16T01:51:25.812Z,50.908180
2023-02-16T01:52:25.797Z,50.908169
2023-02-16T01:53:25.825Z,50.908180
2023-02-16T01:54:25.785Z,50.908054
2023-02-16T01:55:25.781Z,50.908138
2023-02-16T01:56:25.772Z,50.907993
2023-02-16T01:57:25.763Z,50.908081
2023-02-16T01:58:25.757Z,50.908150
2023-02-16T01:59:25.774Z,50.908066
2023-02-16T02:00:25.744Z,50.908001
2023-02-16T02:01:25.776Z,50.908085
2023-02-16T02:02:25.749Z,50.908058
2023-02-16T02:03:25.721Z,50.908009
2023-02-16T02:04:25.741Z,50.908062
2023-02-16T02:05:25.723Z,50.908020
2023-02-16T02:06:25.699Z,50.907928
2023-02-16T02:07:25.698Z,50.907990
2023-02-16T02:08:25.691Z,50.908066
2023-02-16T02:09:25.704Z,50.908012
2023-02-16T02:10:25.673Z,50.907860
2023-02-16T02:11:25.753Z,50.907921
2023-02-16T02:12:25.658Z,50.907948
2023-02-16T02:13:25.648Z,50.907856
2023-02-16T02:14:25.667Z,50.907940
2023-02-16T02:15:25.636Z,50.908005
2023-02-16T02:16:25.683Z,50.907997
2023-02-16T02:17:25.629Z,50.907997
2023-02-16T02:18:25.636Z,50.907944
2023-02-16T02:19:25.628Z,50.907955
2023-02-16T02:20:25.587Z,50.907932
2023-02-16T02:21:26.595Z,50.907951
2023-02-16T02:22:25.588Z,50.908066
2023-02-16T02:23:25.574Z,50.908016
2023-02-16T02:24:26.599Z,50.907974
2023-02-16T02:25:25.563Z,50.908035
2023-02-16T02:26:25.558Z,50.907948
2023-02-16T02:27:25.562Z,50.907879
2023-02-16T02:28:25.548Z,50.908024
2023-02-16T02:29:25.562Z,50.908020
2023-02-16T02:30:25.575Z,50.908085
2023-02-16T02:31:25.637Z,50.908115
2023-02-16T02:32:25.591Z,50.908100
2023-02-16T02:33:25.505Z,50.908176
2023-02-16T02:34:25.525Z,50.908150
2023-02-16T02:35:25.489Z,50.908039
2023-02-16T02:36:25.483Z,50.908054
2023-02-16T02:37:25.479Z,50.908165
2023-02-16T02:38:25.466Z,50.908154
2023-02-16T02:39:25.488Z,50.908115
2023-02-16T02:40:25.453Z,50.908104
2023-02-16T02:41:25.444Z,50.908070
2023-02-16T02:42:25.442Z,50.908035
2023-02-16T02:43:25.430Z,50.908108
2023-02-16T02:44:25.448Z,50.908085
2023-02-16T02:45:25.420Z,50.908100
2023-02-16T02:46:25.520Z,50.908115
2023-02-16T02:47:25.404Z,50.908131
2023-02-16T02:48:25.397Z,50.908150
2023-02-16T02:49:25.415Z,50.908108
2023-02-16T02:50:25.382Z,50.908096
2023-02-16T02:51:25.384Z,50.908096
2023-02-16T02:52:25.381Z,50.908035
2023-02-16T02:53:25.366Z,50.908108
2023-02-16T02:54:25.401Z,50.908104
2023-02-16T02:55:25.349Z,50.908138
2023-02-16T02:56:25.371Z,50.908085
2023-02-16T02:57:25.330Z,50.908039
2023-02-16T02:58:25.334Z,50.908077
2023-02-16T02:59:25.343Z,50.908073
2023-02-16T03:00:25.320Z,50.908089
2023-02-16T03:01:25.410Z,50.908108
2023-02-16T03:02:25.293Z,50.908218
2023-02-16T03:03:25.287Z,50.908127
2023-02-16T03:04:25.328Z,50.908161
2023-02-16T03:05:25.277Z,50.908138
2023-02-16T03:06:25.279Z,50.908104
2023-02-16T03:07:25.263Z,50.908104
2023-02-16T03:08:25.262Z,50.908077
2023-02-16T03:09:25.246Z,50.908051
2023-02-16T03:10:25.264Z,50.908108
2023-02-16T03:11:25.234Z,50.908104
2023-02-16T03:12:25.242Z,50.908066
2023-02-16T03:13:26.221Z,50.908070
2023-02-16T03:14:25.210Z,50.908104
2023-02-16T03:15:25.229Z,50.908119
2023-02-16T03:16:25.299Z,50.908066
2023-02-16T03:17:25.192Z,50.908073
2023-02-16T03:18:25.184Z,50.908066
2023-02-16T03:19:25.174Z,50.908066
2023-02-16T03:20:25.202Z,50.908150
2023-02-16T03:21:25.161Z,50.908104
2023-02-16T03:22:25.158Z,50.908115
2023-02-16T03:23:25.156Z,50.908154
2023-02-16T03:24:25.142Z,50.908127
2023-02-16T03:25:25.154Z,50.908207
2023-02-16T03:26:25.132Z,50.908192
2023-02-16T03:27:25.112Z,50.908230
2023-02-16T03:28:25.113Z,50.908169
2023-02-16T03:29:25.101Z,50.908108
2023-02-16T03:30:25.227Z,50.908150
2023-02-16T03:31:25.207Z,50.908157
2023-02-16T03:32:25.077Z,50.908119
2023-02-16T03:33:25.068Z,50.908134
2023-02-16T03:34:25.058Z,50.908123
2023-02-16T03:35:25.077Z,50.908142
2023-02-16T03:36:25.044Z,50.908127
2023-02-16T03:37:25.038Z,50.908127
2023-02-16T03:38:25.030Z,50.908112
2023-02-16T03:39:25.020Z,50.908089
2023-02-16T03:40:25.045Z,50.908131
2023-02-16T03:41:25.006Z,50.908085
2023-02-16T03:42:25.011Z,50.908127
2023-02-16T03:43:24.996Z,50.908100
2023-02-16T03:44:25.019Z,50.908119
2023-02-16T03:45:25.025Z,50.908104
2023-02-16T03:46:24.971Z,50.908134
2023-02-16T03:47:24.964Z,50.908146
2023-02-16T03:48:24.956Z,50.908100
2023-02-16T03:49:24.949Z,50.908112
2023-02-16T03:50:24.968Z,50.908108
2023-02-16T03:51:24.935Z,50.908077
2023-02-16T03:52:24.928Z,50.908108
2023-02-16T03:53:24.922Z,50.908123
2023-02-16T03:54:24.917Z,50.908054
2023-02-16T03:55:24.932Z,50.908115
2023-02-16T03:56:25.908Z,50.908096
2023-02-16T03:57:24.894Z,50.908092
2023-02-16T03:58:24.906Z,50.908131
2023-02-16T03:59:24.888Z,50.908108
2023-02-16T04:00:24.909Z,50.908115
2023-02-16T04:01:24.866Z,50.908146
2023-02-16T04:02:24.899Z,50.908089
2023-02-16T04:03:24.847Z,50.908119
2023-02-16T04:04:24.868Z,50.908127
2023-02-16T04:05:24.840Z,50.908138
2023-02-16T04:06:24.855Z,50.908123
2023-02-16T04:07:24.822Z,50.908119
2023-02-16T04:08:24.812Z,50.908150
2023-02-16T04:09:24.810Z,50.908092
2023-02-16T04:10:24.797Z,50.908096
2023-02-16T04:11:24.816Z,50.908089
2023-02-16T04:12:24.782Z,50.908062
2023-02-16T04:13:24.771Z,50.908096
2023-02-16T04:14:24.771Z,50.908161
2023-02-16T04:15:24.763Z,50.908066
2023-02-16T04:16:24.808Z,50.908100
2023-02-16T04:17:24.754Z,50.908100
2023-02-16T04:18:24.740Z,50.908081
2023-02-16T04:19:24.763Z,50.908119
2023-02-16T04:20:24.740Z,50.908066
2023-02-16T04:21:24.750Z,50.908024
2023-02-16T04:22:24.717Z,50.908096
2023-02-16T04:23:24.704Z,50.908058
2023-02-16T04:24:24.704Z,50.908070
2023-02-16T04:25:24.956Z,50.908203
2023-02-16T04:26:24.753Z,50.908157
2023-02-16T04:27:24.679Z,50.908180
2023-02-16T04:28:24.669Z,50.908096
2023-02-16T04:29:24.669Z,50.908092
2023-02-16T04:30:24.695Z,50.908012
2023-02-16T04:31:24.760Z,50.908123
2023-02-16T04:32:24.650Z,50.908142
2023-02-16T04:33:24.637Z,50.908134
2023-02-16T04:34:24.632Z,50.908150
2023-02-16T04:35:24.624Z,50.908264
2023-02-16T04:36:24.645Z,50.908195
2023-02-16T04:37:24.627Z,50.908077
2023-02-16T04:38:24.609Z,50.908096
2023-02-16T04:39:24.594Z,50.908092
2023-02-16T04:40:24.587Z,50.907932
2023-02-16T04:41:24.609Z,50.907993
2023-02-16T04:42:24.570Z,50.908077
2023-02-16T04:43:24.569Z,50.908085
2023-02-16T04:44:24.555Z,50.908104
2023-02-16T04:45:24.555Z,50.907879
2023-02-16T04:46:24.656Z,50.908024
2023-02-16T04:47:24.532Z,50.908024
2023-02-16T04:48:24.530Z,50.908077
2023-02-16T04:49:24.525Z,50.908337
2023-02-16T04:50:24.513Z,50.908211
2023-02-16T04:51:24.533Z,50.908100
2023-02-16T04:52:24.497Z,50.908085
2023-02-16T04:53:24.491Z,50.907993
2023-02-16T04:54:24.506Z,50.907898
2023-02-16T04:55:24.478Z,50.907688
2023-02-16T04:56:24.492Z,50.907925
2023-02-16T04:57:24.468Z,50.907955
2023-02-16T04:58:24.449Z,50.908104
2023-02-16T04:59:24.446Z,50.909252
2023-02-16T05:00:24.439Z,50.909252
2023-02-16T05:01:24.577Z,50.909084
2023-02-16T05:02:24.431Z,50.908714
2023-02-16T05:03:24.423Z,50.908436
2023-02-16T05:04:24.532Z,50.908276
2023-02-16T05:05:24.401Z,50.908497
2023-02-16T05:06:24.428Z,50.908447
2023-02-16T05:07:24.381Z,50.908474
2023-02-16T05:08:24.384Z,50.908474
2023-02-16T05:09:24.372Z,50.908474
2023-02-16T05:10:24.361Z,50.908398
2023-02-16T05:11:24.359Z,50.908279
2023-02-16T05:12:24.384Z,50.908314
2023-02-16T05:13:24.343Z,50.908329
2023-02-16T05:14:24.337Z,50.908279
2023-02-16T05:15:24.334Z,50.908321
2023-02-16T05:16:24.343Z,50.908276
2023-02-16T05:17:24.342Z,50.908283
2023-02-16T05:18:24.316Z,50.908531
2023-02-16T05:19:24.303Z,50.908466
2023-02-16T05:20:24.296Z,50.908390
2023-02-16T05:21:24.287Z,50.908390
2023-02-16T05:22:24.318Z,50.908390
2023-02-16T05:23:24.281Z,50.908390
2023-02-16T05:24:24.258Z,50.908390
2023-02-16T05:25:24.251Z,50.908390
2023-02-16T05:26:25.243Z,50.908390
2023-02-16T05:27:24.264Z,50.908390
2023-02-16T05:28:24.317Z,50.908390
2023-02-16T05:29:24.248Z,50.909557
2023-02-16T05:30:24.296Z,50.909557
2023-02-16T05:31:24.344Z,50.909557
2023-02-16T05:32:24.305Z,50.908623
2023-02-16T05:33:24.226Z,50.908623
2023-02-16T05:34:24.230Z,50.907944
2023-02-16T05:35:24.187Z,50.908298
2023-02-16T05:36:24.174Z,50.908298
2023-02-16T05:37:24.198Z,50.908302
2023-02-16T05:38:24.166Z,50.908405
2023-02-16T05:39:24.166Z,50.908028
2023-02-16T05:40:24.142Z,50.908276
2023-02-16T05:41:25.148Z,50.908134
2023-02-16T05:42:24.166Z,50.908192
2023-02-16T05:43:24.134Z,50.907982
2023-02-16T05:44:24.124Z,50.907993
2023-02-16T05:45:24.119Z,50.907970
2023-02-16T05:46:24.146Z,50.907887
2023-02-16T05:47:24.121Z,50.907970
2023-02-16T05:48:24.084Z,50.907883
2023-02-16T05:49:24.272Z,50.907982
2023-02-16T05:50:24.092Z,50.908024
2023-02-16T05:51:24.062Z,50.908009
2023-02-16T05:52:24.090Z,50.907978
2023-02-16T05:53:24.055Z,50.908073
2023-02-16T05:54:24.058Z,50.908134
2023-02-16T05:55:24.042Z,50.908134
2023-02-16T05:56:24.037Z,50.908092
2023-02-16T05:57:24.055Z,50.908123
2023-02-16T05:58:24.032Z,50.908154
2023-02-16T05:59:24.061Z,50.908054
2023-02-16T06:00:24.001Z,50.908085
2023-02-16T06:01:24.006Z,50.908123
2023-02-16T06:02:24.107Z,50.908112
2023-02-16T06:03:23.995Z,50.908123
2023-02-16T06:04:23.980Z,50.908112
2023-02-16T06:05:24.027Z,50.908142
2023-02-16T06:06:23.966Z,50.908077
2023-02-16T06:07:24.000Z,50.908131
2023-02-16T06:08:23.944Z,50.908119
2023-02-16T06:09:23.948Z,50.908104
2023-02-16T06:10:23.936Z,50.908131
2023-02-16T06:11:24.014Z,50.908119
2023-02-16T06:12:23.962Z,50.908081
2023-02-16T06:13:23.910Z,50.908134
2023-02-16T06:14:23.914Z,50.908123
2023-02-16T06:15:23.906Z,50.908119
2023-02-16T06:16:23.930Z,50.908154
2023-02-16T06:17:23.918Z,50.908192
2023-02-16T06:18:23.881Z,50.908131
2023-02-16T06:19:23.875Z,50.908146
2023-02-16T06:20:23.861Z,50.908089
2023-02-16T06:21:23.857Z,50.908096
2023-02-16T06:22:23.853Z,50.908123
2023-02-16T06:23:23.860Z,50.908108
2023-02-16T06:24:23.829Z,50.908096
2023-02-16T06:25:24.699Z,50.908047
2023-02-16T06:26:23.816Z,50.908089
2023-02-16T06:27:23.823Z,50.908119
2023-02-16T06:28:23.933Z,50.908150
2023-02-16T06:29:23.794Z,50.908180
2023-02-16T06:30:24.831Z,50.908138
2023-02-16T06:31:23.935Z,50.908051
2023-02-16T06:32:23.891Z,50.908127
2023-02-16T06:33:23.789Z,50.908115
2023-02-16T06:34:23.762Z,50.908100
2023-02-16T06:35:23.744Z,50.908092
2023-02-16T06:36:23.728Z,50.908092
2023-02-16T06:37:24.767Z,50.908100
2023-02-16T06:38:23.752Z,50.908092
2023-02-16T06:39:23.724Z,50.908089
2023-02-16T06:40:23.720Z,50.908092
2023-02-16T06:41:23.701Z,50.908142
2023-02-16T06:42:23.692Z,50.908134
2023-02-16T06:43:23.719Z,50.908119
2023-02-16T06:44:23.685Z,50.908092
2023-02-16T06:45:23.671Z,50.908127
2023-02-16T06:46:23.684Z,50.908112
2023-02-16T06:47:23.658Z,50.908115
2023-02-16T06:48:23.677Z,50.908127
2023-02-16T06:49:25.474Z,50.908100
2023-02-16T06:50:23.628Z,50.908115
2023-02-16T06:51:24.626Z,50.908104
2023-02-16T06:52:23.638Z,50.908115
2023-02-16T06:53:23.642Z,50.908108
2023-02-16T06:54:23.608Z,50.908157
2023-02-16T06:55:23.602Z,50.908131
2023-02-16T06:56:23.596Z,50.908138
2023-02-16T06:57:23.584Z,50.908100
2023-02-16T06:58:23.623Z,50.908096
2023-02-16T06:59:23.581Z,50.908119
2023-02-16T07:00:23.604Z,50.908104
2023-02-16T07:01:23.680Z,50.908134
2023-02-16T07:02:23.552Z,50.908150
2023-02-16T07:03:23.595Z,50.908108
2023-02-16T07:04:23.533Z,50.908131
2023-02-16T07:05:23.559Z,50.908115
2023-02-16T07:06:23.520Z,50.908165
2023-02-16T07:07:23.519Z,50.908112
2023-02-16T07:08:23.533Z,50.908146
2023-02-16T07:09:23.503Z,50.908142
2023-02-16T07:10:23.494Z,50.908096
2023-02-16T07:11:23.505Z,50.908112
2023-02-16T07:12:23.485Z,50.908154
2023-02-16T07:13:23.500Z,50.908157
2023-02-16T07:14:23.463Z,50.908165
2023-02-16T07:15:23.452Z,50.908115
2023-02-16T07:16:23.515Z,50.908150
2023-02-16T07:17:23.444Z,50.908165
2023-02-16T07:18:23.460Z,50.908138
2023-02-16T07:19:23.430Z,50.908173
2023-02-16T07:20:23.427Z,50.908142
2023-02-16T07:21:23.416Z,50.908180
2023-02-16T07:22:23.466Z,50.908142
2023-02-16T07:23:23.424Z,50.908119
2023-02-16T07:24:23.402Z,50.908123
2023-02-16T07:25:23.380Z,50.908096
2023-02-16T07:26:23.377Z,50.908123
2023-02-16T07:27:23.385Z,50.908119
2023-02-16T07:28:23.389Z,50.908150
2023-02-16T07:29:23.353Z,50.908192
2023-02-16T07:30:23.381Z,50.908169
2023-02-16T07:31:23.484Z,50.908150
2023-02-16T07:32:23.384Z,50.908127
2023-02-16T07:33:23.360Z,50.908119
2023-02-16T07:34:23.318Z,50.908119
2023-02-16T07:35:23.314Z,50.908119
2023-02-16T07:36:23.308Z,50.908131
2023-02-16T07:37:23.299Z,50.908131
2023-02-16T07:38:23.318Z,50.908161
2023-02-16T07:39:23.283Z,50.908138
2023-02-16T07:40:23.278Z,50.908127
2023-02-16T07:41:23.269Z,50.908138
2023-02-16T07:42:23.261Z,50.908161
2023-02-16T07:43:23.289Z,50.908119
2023-02-16T07:44:23.250Z,50.908123
2023-02-16T07:45:23.291Z,50.908119
2023-02-16T07:46:23.235Z,50.908119
2023-02-16T07:47:23.225Z,50.908104
2023-02-16T07:48:23.218Z,50.908176
2023-02-16T07:49:23.238Z,50.908096
2023-02-16T07:50:23.209Z,50.908085
2023-02-16T07:51:23.224Z,50.908138
2023-02-16T07:52:23.191Z,50.908092
2023-02-16T07:53:23.191Z,50.908146
2023-02-16T07:54:23.202Z,50.908115
2023-02-16T07:55:23.168Z,50.908150
2023-02-16T07:56:23.152Z,50.908169
2023-02-16T07:57:23.143Z,50.908115
2023-02-16T07:58:23.139Z,50.908176
2023-02-16T07:59:23.156Z,50.908150
2023-02-16T08:00:23.126Z,50.908131
2023-02-16T08:01:23.114Z,50.908215
2023-02-16T08:02:24.347Z,50.908257
2023-02-16T08:03:23.353Z,50.908161
2023-02-16T08:04:23.118Z,50.908134
2023-02-16T08:05:23.085Z,50.908112
2023-02-16T08:06:23.087Z,50.908077
2023-02-16T08:07:23.065Z,50.908112
2023-02-16T08:08:23.062Z,50.908184
2023-02-16T08:09:23.085Z,50.908173
2023-02-16T08:10:23.050Z,50.908115
2023-02-16T08:11:23.048Z,50.908085
2023-02-16T08:12:23.044Z,50.908073
2023-02-16T08:13:23.031Z,50.908073
2023-02-16T08:14:23.048Z,50.908051
2023-02-16T08:15:23.022Z,50.907993
2023-02-16T08:16:23.035Z,50.908043
2023-02-16T08:17:23.012Z,50.908062
2023-02-16T08:18:23.000Z,50.908051
2023-02-16T08:19:23.030Z,50.908070
2023-02-16T08:20:27.789Z,50.908035
2023-02-16T08:21:24.989Z,50.908142
2023-02-16T08:22:23.975Z,50.908035
2023-02-16T08:23:22.962Z,50.908115
2023-02-16T08:24:22.989Z,50.908218
2023-02-16T08:25:22.948Z,50.908154
2023-02-16T08:26:22.944Z,50.908092
2023-02-16T08:27:22.929Z,50.908043
2023-02-16T08:28:22.927Z,50.908295
2023-02-16T08:29:22.923Z,50.908352
2023-02-16T08:30:23.013Z,50.908222
2023-02-16T08:31:23.000Z,50.908215
2023-02-16T08:32:23.011Z,50.908096
2023-02-16T08:33:22.887Z,50.908009
2023-02-16T08:34:22.886Z,50.907925
2023-02-16T08:35:22.954Z,50.908085
2023-02-16T08:36:22.882Z,50.907951
2023-02-16T08:37:22.859Z,50.907642
2023-02-16T08:38:22.849Z,50.907974
2023-02-16T08:39:22.858Z,50.908066
2023-02-16T08:40:22.874Z,50.908146
2023-02-16T08:41:22.824Z,50.908070
2023-02-16T08:42:22.820Z,50.908123
2023-02-16T08:43:22.813Z,50.908131
2023-02-16T08:44:22.844Z,50.908062
2023-02-16T08:45:22.815Z,50.908154
2023-02-16T08:46:22.905Z,50.908108
2023-02-16T08:47:22.777Z,50.908131
2023-02-16T08:48:22.767Z,50.908146
2023-02-16T08:49:22.762Z,50.908142
2023-02-16T08:50:22.775Z,50.908161
2023-02-16T08:51:22.771Z,50.908134
2023-02-16T08:52:22.737Z,50.908173
2023-02-16T08:53:22.735Z,50.908195
2023-02-16T08:54:22.725Z,50.908176
2023-02-16T08:55:22.732Z,50.908169
2023-02-16T08:56:22.698Z,50.908188
2023-02-16T08:57:22.698Z,50.908203
2023-02-16T08:58:22.694Z,50.908169
2023-02-16T08:59:22.679Z,50.908157
2023-02-16T09:00:22.774Z,50.908161
2023-02-16T09:01:22.726Z,50.908184
2023-02-16T09:02:22.672Z,50.908207
2023-02-16T09:03:22.645Z,50.908188
2023-02-16T09:04:22.637Z,50.908173
2023-02-16T09:05:22.652Z,50.908169
2023-02-16T09:06:22.624Z,50.908188
2023-02-16T09:07:22.649Z,50.908222
2023-02-16T09:08:22.606Z,50.908165
2023-02-16T09:09:22.599Z,50.908146
2023-02-16T09:10:22.686Z,50.908173
2023-02-16T09:11:22.575Z,50.908157
2023-02-16T09:12:22.574Z,50.908142
2023-02-16T09:13:22.609Z,50.908134
2023-02-16T09:14:22.558Z,50.908089
2023-02-16T09:15:22.609Z,50.908104
2023-02-16T09:16:22.683Z,50.908119
2023-02-16T09:17:22.542Z,50.908104
2023-02-16T09:18:22.530Z,50.908108
2023-02-16T09:19:22.515Z,50.908119
2023-02-16T09:20:22.536Z,50.908134
2023-02-16T09:21:22.534Z,50.908150
2023-02-16T09:22:22.501Z,50.908154
2023-02-16T09:23:22.518Z,50.908134
2023-02-16T09:24:22.479Z,50.908115
2023-02-16T09:25:22.504Z,50.908092
2023-02-16T09:26:22.472Z,50.908096
2023-02-16T09:27:22.464Z,50.908108
2023-02-16T09:28:22.453Z,50.908119
2023-02-16T09:29:22.446Z,50.908119
2023-02-16T09:30:22.578Z,50.908081
2023-02-16T09:31:22.595Z,50.908089
2023-02-16T09:32:22.425Z,50.908112
2023-02-16T09:33:22.418Z,50.908119
2023-02-16T09:34:22.406Z,50.908096
2023-02-16T09:35:22.426Z,50.908146
2023-02-16T09:36:22.395Z,50.908161
2023-02-16T09:37:22.383Z,50.908134
2023-02-16T09:38:22.376Z,50.908108
2023-02-16T09:39:22.376Z,50.908077
2023-02-16T09:40:22.390Z,50.908089
2023-02-16T09:41:22.356Z,50.908100
2023-02-16T09:42:22.350Z,50.908142
2023-02-16T09:43:22.368Z,50.908108
2023-02-16T09:44:22.338Z,50.908092
2023-02-16T09:45:22.359Z,50.908073
2023-02-16T09:46:22.821Z,50.908066
2023-02-16T09:47:23.307Z,50.908100
2023-02-16T09:48:22.301Z,50.908100
2023-02-16T09:49:22.313Z,50.908096
2023-02-16T09:50:50.422Z,50.908070
2023-02-16T09:51:33.777Z,50.908081
2023-02-16T09:52:24.286Z,50.908092
2023-02-16T09:53:22.265Z,50.908112
2023-02-16T09:54:22.257Z,50.908119
2023-02-16T09:55:22.252Z,50.908096
2023-02-16T09:56:22.324Z,50.908081
2023-02-16T09:57:22.232Z,50.908131
2023-02-16T09:58:22.226Z,50.908112
2023-02-16T09:59:22.218Z,50.908115
2023-02-16T10:00:22.217Z,50.908119
2023-02-16T10:01:22.300Z,50.908077
2023-02-16T10:02:22.232Z,50.908096
2023-02-16T10:03:22.190Z,50.908119
2023-02-16T10:04:22.183Z,50.908150
2023-02-16T10:05:22.173Z,50.908146
2023-02-16T10:06:22.200Z,50.908104
2023-02-16T10:07:22.170Z,50.908115
2023-02-16T10:08:22.153Z,50.908104
2023-02-16T10:09:22.142Z,50.908119
2023-02-16T10:10:22.156Z,50.908119
2023-02-16T10:11:22.186Z,50.908173
2023-02-16T10:12:22.118Z,50.908165
2023-02-16T10:13:22.110Z,50.908157
2023-02-16T10:14:22.105Z,50.908173
2023-02-16T10:15:22.099Z,50.908123
2023-02-16T10:16:22.117Z,50.908180
2023-02-16T10:17:22.078Z,50.908203
2023-02-16T10:18:22.104Z,50.908131
2023-02-16T10:19:22.069Z,50.908146
2023-02-16T10:20:22.049Z,50.908192
2023-02-16T10:21:22.077Z,50.908237
2023-02-16T10:22:22.037Z,50.908165
2023-02-16T10:23:22.035Z,50.908131
2023-02-16T10:24:22.051Z,50.908169
2023-02-16T10:25:22.027Z,50.908165
2023-02-16T10:26:22.009Z,50.908176
2023-02-16T10:27:22.025Z,50.908123
2023-02-16T10:28:22.997Z,50.908134
2023-02-16T10:29:22.981Z,50.908150
2023-02-16T10:30:22.076Z,50.908127
2023-02-16T10:31:22.080Z,50.908138
2023-02-16T10:32:21.959Z,50.908165
2023-02-16T10:33:21.952Z,50.908127
2023-02-16T10:34:23.218Z,50.908131
2023-02-16T10:35:22.986Z,50.908127
2023-02-16T10:36:21.932Z,50.908115
2023-02-16T10:37:21.947Z,50.908089
2023-02-16T10:38:21.916Z,50.908066
2023-02-16T10:39:21.909Z,50.908112
2023-02-16T10:40:23.410Z,50.908054
2023-02-16T10:41:22.903Z,50.908009
2023-02-16T10:42:21.911Z,50.908054
2023-02-16T10:43:21.880Z,50.908134
2023-02-16T10:44:21.897Z,50.908070
2023-02-16T10:45:21.865Z,50.907986
2023-02-16T10:46:21.860Z,50.908024
2023-02-16T10:47:21.874Z,50.908089
2023-02-16T10:48:21.886Z,50.908123
2023-02-16T10:49:21.851Z,50.908123
2023-02-16T10:50:21.821Z,50.908138
2023-02-16T10:51:21.831Z,50.908100
2023-02-16T10:52:21.833Z,50.908146
2023-02-16T10:53:21.801Z,50.908119
2023-02-16T10:54:21.809Z,50.908142
2023-02-16T10:55:21.784Z,50.908115
2023-02-16T10:56:21.777Z,50.908115
2023-02-16T10:57:21.798Z,50.908112
2023-02-16T10:58:22.631Z,50.908134
2023-02-16T10:59:22.759Z,50.908108
2023-02-16T11:00:21.753Z,50.908104
2023-02-16T11:01:21.763Z,50.908115
2023-02-16T11:02:21.761Z,50.908054
2023-02-16T11:03:21.723Z,50.908108
2023-02-16T11:04:22.914Z,50.908165
2023-02-16T11:05:22.706Z,50.908092
2023-02-16T11:06:21.705Z,50.908089
2023-02-16T11:07:21.717Z,50.908123
2023-02-16T11:08:21.684Z,50.908127
2023-02-16T11:09:21.682Z,50.908134
2023-02-16T11:10:21.684Z,50.908112
2023-02-16T11:11:21.661Z,50.908073
2023-02-16T11:12:21.685Z,50.908108
2023-02-16T11:13:21.649Z,50.908077
2023-02-16T11:14:21.643Z,50.908100
2023-02-16T11:15:21.709Z,50.908092
2023-02-16T11:16:21.653Z,50.908195
2023-02-16T11:17:21.671Z,50.908092
2023-02-16T11:18:21.611Z,50.908077
2023-02-16T11:19:21.603Z,50.908112
2023-02-16T11:20:21.598Z,50.908119
2023-02-16T11:21:21.586Z,50.908131
2023-02-16T11:22:21.605Z,50.908138
2023-02-16T11:23:21.575Z,50.908138
2023-02-16T11:24:21.574Z,50.908104